sensor_id;sensor_type;location;lat;lon;timestamp;temperature;humidity
47482;DHT22;33219;47.410;9.730;2023-09-18T00:01:07;19.70;95.60
47482;DHT22;33219;47.410;9.730;2023-09-18T00:03:35;19.60;95.80
47482;DHT22;33219;47.410;9.730;2023-09-18T00:06:03;19.60;96.00
47482;DHT22;33219;47.410;9.730;2023-09-18T00:08:31;19.60;95.70
47482;DHT22;33219;47.410;9.730;2023-09-18T00:10:59;19.70;95.00
47482;DHT22;33219;47.410;9.730;2023-09-18T00:13:27;19.70;95.20
47482;DHT22;33219;47.410;9.730;2023-09-18T00:15:56;19.70;95.30
47482;DHT22;33219;47.410;9.730;2023-09-18T00:18:25;19.80;94.90
47482;DHT22;33219;47.410;9.730;2023-09-18T00:20:52;19.80;94.70
47482;DHT22;33219;47.410;9.730;2023-09-18T00:23:20;19.90;95.50
47482;DHT22;33219;47.410;9.730;2023-09-18T00:25:48;20.00;95.10
47482;DHT22;33219;47.410;9.730;2023-09-18T00:28:15;19.90;95.20
47482;DHT22;33219;47.410;9.730;2023-09-18T00:30:48;19.80;94.90
47482;DHT22;33219;47.410;9.730;2023-09-18T00:33:20;19.90;95.10
47482;DHT22;33219;47.410;9.730;2023-09-18T00:35:49;19.90;94.70
47482;DHT22;33219;47.410;9.730;2023-09-18T00:38:17;20.00;94.20
47482;DHT22;33219;47.410;9.730;2023-09-18T00:40:45;19.90;94.30
47482;DHT22;33219;47.410;9.730;2023-09-18T00:43:13;19.90;94.80
47482;DHT22;33219;47.410;9.730;2023-09-18T00:45:44;19.80;95.50
47482;DHT22;33219;47.410;9.730;2023-09-18T00:48:12;19.80;95.60
47482;DHT22;33219;47.410;9.730;2023-09-18T00:50:39;19.70;95.40
47482;DHT22;33219;47.410;9.730;2023-09-18T00:53:08;19.60;95.50
47482;DHT22;33219;47.410;9.730;2023-09-18T00:55:37;19.60;95.80
47482;DHT22;33219;47.410;9.730;2023-09-18T00:58:06;19.60;95.80
47482;DHT22;33219;47.410;9.730;2023-09-18T01:00:34;19.70;95.50
47482;DHT22;33219;47.410;9.730;2023-09-18T01:03:02;19.60;95.60
47482;DHT22;33219;47.410;9.730;2023-09-18T01:05:34;19.60;95.30
47482;DHT22;33219;47.410;9.730;2023-09-18T01:08:02;19.60;96.20
47482;DHT22;33219;47.410;9.730;2023-09-18T01:10:33;19.50;95.10
47482;DHT22;33219;47.410;9.730;2023-09-18T01:13:19;19.70;94.50
47482;DHT22;33219;47.410;9.730;2023-09-18T01:15:56;19.90;94.50
47482;DHT22;33219;47.410;9.730;2023-09-18T01:18:18;20.00;94.50
47482;DHT22;33219;47.410;9.730;2023-09-18T01:20:46;19.80;95.50
47482;DHT22;33219;47.410;9.730;2023-09-18T01:23:14;19.80;94.90
47482;DHT22;33219;47.410;9.730;2023-09-18T01:25:41;19.90;94.80
47482;DHT22;33219;47.410;9.730;2023-09-18T01:28:09;19.90;95.40
47482;DHT22;33219;47.410;9.730;2023-09-18T01:30:37;19.80;95.40
47482;DHT22;33219;47.410;9.730;2023-09-18T01:33:05;19.60;95.50
47482;DHT22;33219;47.410;9.730;2023-09-18T01:35:34;19.60;95.60
47482;DHT22;33219;47.410;9.730;2023-09-18T01:38:02;19.50;95.60
47482;DHT22;33219;47.410;9.730;2023-09-18T01:40:31;19.40;95.90
47482;DHT22;33219;47.410;9.730;2023-09-18T01:42:59;19.40;95.80
47482;DHT22;33219;47.410;9.730;2023-09-18T01:45:27;19.40;95.30
47482;DHT22;33219;47.410;9.730;2023-09-18T01:47:55;19.40;95.20
47482;DHT22;33219;47.410;9.730;2023-09-18T01:50:23;19.50;95.00
47482;DHT22;33219;47.410;9.730;2023-09-18T01:52:50;19.60;95.20
47482;DHT22;33219;47.410;9.730;2023-09-18T01:55:18;19.50;95.90
47482;DHT22;33219;47.410;9.730;2023-09-18T01:57:46;19.60;95.20
47482;DHT22;33219;47.410;9.730;2023-09-18T02:00:14;19.70;95.40
47482;DHT22;33219;47.410;9.730;2023-09-18T02:02:42;19.70;95.60
47482;DHT22;33219;47.410;9.730;2023-09-18T02:05:10;19.70;95.60
47482;DHT22;33219;47.410;9.730;2023-09-18T02:07:37;19.70;95.80
47482;DHT22;33219;47.410;9.730;2023-09-18T02:10:05;19.60;95.60
47482;DHT22;33219;47.410;9.730;2023-09-18T02:12:33;19.70;95.30
47482;DHT22;33219;47.410;9.730;2023-09-18T02:15:00;19.60;95.40
47482;DHT22;33219;47.410;9.730;2023-09-18T02:17:30;19.50;96.40
47482;DHT22;33219;47.410;9.730;2023-09-18T02:19:58;19.50;95.80
47482;DHT22;33219;47.410;9.730;2023-09-18T02:22:27;19.60;95.40
47482;DHT22;33219;47.410;9.730;2023-09-18T02:24:54;19.60;96.00
47482;DHT22;33219;47.410;9.730;2023-09-18T02:27:22;19.60;94.70
47482;DHT22;33219;47.410;9.730;2023-09-18T02:29:49;19.80;95.40
47482;DHT22;33219;47.410;9.730;2023-09-18T02:32:19;19.80;95.70
47482;DHT22;33219;47.410;9.730;2023-09-18T02:34:46;19.70;95.50
47482;DHT22;33219;47.410;9.730;2023-09-18T02:37:14;19.60;96.30
47482;DHT22;33219;47.410;9.730;2023-09-18T02:39:41;19.50;96.20
47482;DHT22;33219;47.410;9.730;2023-09-18T02:42:09;19.50;96.10
47482;DHT22;33219;47.410;9.730;2023-09-18T02:44:38;19.50;96.00
47482;DHT22;33219;47.410;9.730;2023-09-18T02:47:08;19.50;96.10
47482;DHT22;33219;47.410;9.730;2023-09-18T02:49:35;19.50;96.40
47482;DHT22;33219;47.410;9.730;2023-09-18T02:52:04;19.40;96.50
47482;DHT22;33219;47.410;9.730;2023-09-18T02:54:32;19.40;96.40
47482;DHT22;33219;47.410;9.730;2023-09-18T02:56:59;19.40;96.50
47482;DHT22;33219;47.410;9.730;2023-09-18T02:59:27;19.40;96.10
47482;DHT22;33219;47.410;9.730;2023-09-18T03:01:54;19.40;96.50
47482;DHT22;33219;47.410;9.730;2023-09-18T03:04:22;19.40;96.30
47482;DHT22;33219;47.410;9.730;2023-09-18T03:06:49;19.40;96.30
47482;DHT22;33219;47.410;9.730;2023-09-18T03:09:17;19.40;96.30
47482;DHT22;33219;47.410;9.730;2023-09-18T03:11:45;19.40;96.00
47482;DHT22;33219;47.410;9.730;2023-09-18T03:14:12;19.40;96.60
47482;DHT22;33219;47.410;9.730;2023-09-18T03:16:40;19.40;96.40
47482;DHT22;33219;47.410;9.730;2023-09-18T03:19:08;19.40;96.00
47482;DHT22;33219;47.410;9.730;2023-09-18T03:21:35;19.30;97.60
47482;DHT22;33219;47.410;9.730;2023-09-18T03:24:03;19.40;96.60
47482;DHT22;33219;47.410;9.730;2023-09-18T03:26:32;19.50;95.90
47482;DHT22;33219;47.410;9.730;2023-09-18T03:28:59;19.50;96.10
47482;DHT22;33219;47.410;9.730;2023-09-18T03:31:27;19.70;95.60
47482;DHT22;33219;47.410;9.730;2023-09-18T03:33:55;19.70;97.20
47482;DHT22;33219;47.410;9.730;2023-09-18T03:36:23;19.60;96.50
47482;DHT22;33219;47.410;9.730;2023-09-18T03:38:50;19.70;96.10
47482;DHT22;33219;47.410;9.730;2023-09-18T03:41:18;19.70;96.20
47482;DHT22;33219;47.410;9.730;2023-09-18T03:43:46;19.60;96.50
47482;DHT22;33219;47.410;9.730;2023-09-18T03:46:13;19.60;96.60
47482;DHT22;33219;47.410;9.730;2023-09-18T03:48:41;19.50;97.30
47482;DHT22;33219;47.410;9.730;2023-09-18T03:51:08;19.40;97.40
47482;DHT22;33219;47.410;9.730;2023-09-18T03:53:36;19.30;98.10
47482;DHT22;33219;47.410;9.730;2023-09-18T03:56:04;19.20;97.80
47482;DHT22;33219;47.410;9.730;2023-09-18T03:58:31;19.20;98.50
47482;DHT22;33219;47.410;9.730;2023-09-18T04:00:59;19.10;98.40
47482;DHT22;33219;47.410;9.730;2023-09-18T04:03:27;19.10;99.90
47482;DHT22;33219;47.410;9.730;2023-09-18T04:05:55;19.10;99.90
47482;DHT22;33219;47.410;9.730;2023-09-18T04:08:22;19.10;99.90
47482;DHT22;33219;47.410;9.730;2023-09-18T04:10:51;19.10;99.90
47482;DHT22;33219;47.410;9.730;2023-09-18T04:13:20;19.00;99.90
47482;DHT22;33219;47.410;9.730;2023-09-18T04:15:48;19.00;99.90
47482;DHT22;33219;47.410;9.730;2023-09-18T04:18:16;19.00;99.90
47482;DHT22;33219;47.410;9.730;2023-09-18T04:20:44;19.00;99.90
47482;DHT22;33219;47.410;9.730;2023-09-18T04:23:27;19.00;99.90
47482;DHT22;33219;47.410;9.730;2023-09-18T04:25:53;19.00;99.90
47482;DHT22;33219;47.410;9.730;2023-09-18T04:28:22;19.00;99.90
47482;DHT22;33219;47.410;9.730;2023-09-18T04:30:50;19.10;99.90
47482;DHT22;33219;47.410;9.730;2023-09-18T04:33:18;19.10;99.90
47482;DHT22;33219;47.410;9.730;2023-09-18T04:35:47;19.20;99.90
47482;DHT22;33219;47.410;9.730;2023-09-18T04:38:15;19.20;99.90
47482;DHT22;33219;47.410;9.730;2023-09-18T04:40:43;19.30;99.90
47482;DHT22;33219;47.410;9.730;2023-09-18T04:43:12;19.30;99.90
47482;DHT22;33219;47.410;9.730;2023-09-18T04:45:39;19.40;99.90
47482;DHT22;33219;47.410;9.730;2023-09-18T04:48:09;19.40;99.90
47482;DHT22;33219;47.410;9.730;2023-09-18T04:50:36;19.40;99.90
47482;DHT22;33219;47.410;9.730;2023-09-18T04:53:04;19.50;99.90
47482;DHT22;33219;47.410;9.730;2023-09-18T04:55:31;19.60;99.90
47482;DHT22;33219;47.410;9.730;2023-09-18T04:57:59;19.70;99.90
47482;DHT22;33219;47.410;9.730;2023-09-18T05:00:26;19.70;99.90
47482;DHT22;33219;47.410;9.730;2023-09-18T05:02:55;19.80;99.90
47482;DHT22;33219;47.410;9.730;2023-09-18T05:05:24;19.70;99.90
47482;DHT22;33219;47.410;9.730;2023-09-18T05:07:51;19.70;99.90
47482;DHT22;33219;47.410;9.730;2023-09-18T05:10:19;19.80;99.90
47482;DHT22;33219;47.410;9.730;2023-09-18T05:12:48;19.80;99.90
47482;DHT22;33219;47.410;9.730;2023-09-18T05:15:17;19.80;99.90
47482;DHT22;33219;47.410;9.730;2023-09-18T05:17:46;19.70;99.90
47482;DHT22;33219;47.410;9.730;2023-09-18T05:20:17;19.70;99.90
47482;DHT22;33219;47.410;9.730;2023-09-18T05:22:50;19.80;99.90
47482;DHT22;33219;47.410;9.730;2023-09-18T05:25:19;19.80;99.90
47482;DHT22;33219;47.410;9.730;2023-09-18T05:27:49;19.90;99.90
47482;DHT22;33219;47.410;9.730;2023-09-18T05:30:20;19.90;99.90
47482;DHT22;33219;47.410;9.730;2023-09-18T05:32:52;20.00;99.90
47482;DHT22;33219;47.410;9.730;2023-09-18T05:35:25;20.10;99.90
47482;DHT22;33219;47.410;9.730;2023-09-18T05:41:11;20.10;99.90
47482;DHT22;33219;47.410;9.730;2023-09-18T05:43:59;20.20;99.90
47482;DHT22;33219;47.410;9.730;2023-09-18T05:49:42;20.30;99.90
47482;DHT22;33219;47.410;9.730;2023-09-18T05:52:33;20.50;99.90
47482;DHT22;33219;47.410;9.730;2023-09-18T05:55:20;20.60;99.90
47482;DHT22;33219;47.410;9.730;2023-09-18T05:58:14;20.80;99.90
47482;DHT22;33219;47.410;9.730;2023-09-18T06:01:00;20.90;99.90
47482;DHT22;33219;47.410;9.730;2023-09-18T06:03:42;21.00;99.90
47482;DHT22;33219;47.410;9.730;2023-09-18T06:06:41;21.10;99.90
47482;DHT22;33219;47.410;9.730;2023-09-18T06:09:15;21.30;99.90
47482;DHT22;33219;47.410;9.730;2023-09-18T06:14:59;21.50;99.90
47482;DHT22;33219;47.410;9.730;2023-09-18T06:17:44;21.50;99.90
47482;DHT22;33219;47.410;9.730;2023-09-18T06:20:19;21.50;99.90
47482;DHT22;33219;47.410;9.730;2023-09-18T06:23:09;21.50;99.90
47482;DHT22;33219;47.410;9.730;2023-09-18T06:26:05;21.40;99.90
47482;DHT22;33219;47.410;9.730;2023-09-18T06:28:51;21.40;99.90
47482;DHT22;33219;47.410;9.730;2023-09-18T06:31:47;21.40;99.90
47482;DHT22;33219;47.410;9.730;2023-09-18T06:34:29;21.40;99.90
47482;DHT22;33219;47.410;9.730;2023-09-18T06:37:10;21.50;99.90
47482;DHT22;33219;47.410;9.730;2023-09-18T06:40:06;21.80;99.90
47482;DHT22;33219;47.410;9.730;2023-09-18T06:46:00;22.20;99.90
47482;DHT22;33219;47.410;9.730;2023-09-18T06:48:41;22.30;99.90
47482;DHT22;33219;47.410;9.730;2023-09-18T07:00:37;22.80;99.90
47482;DHT22;33219;47.410;9.730;2023-09-18T07:03:14;22.90;99.90
47482;DHT22;33219;47.410;9.730;2023-09-18T07:06:08;22.90;99.90
47482;DHT22;33219;47.410;9.730;2023-09-18T07:09:00;22.80;99.90
47482;DHT22;33219;47.410;9.730;2023-09-18T07:11:57;22.80;99.90
47482;DHT22;33219;47.410;9.730;2023-09-18T07:17:40;22.50;99.90
47482;DHT22;33219;47.410;9.730;2023-09-18T07:20:43;22.40;99.90
47482;DHT22;33219;47.410;9.730;2023-09-18T07:33:43;22.00;99.90
47482;DHT22;33219;47.410;9.730;2023-09-18T07:36:48;22.00;99.90
47482;DHT22;33219;47.410;9.730;2023-09-18T07:44:32;21.80;99.90
47482;DHT22;33219;47.410;9.730;2023-09-18T07:47:10;21.70;99.90
47482;DHT22;33219;47.410;9.730;2023-09-18T07:49:51;21.60;99.90
47482;DHT22;33219;47.410;9.730;2023-09-18T07:58:10;21.50;99.90
47482;DHT22;33219;47.410;9.730;2023-09-18T08:00:43;21.60;99.90
47482;DHT22;33219;47.410;9.730;2023-09-18T08:06:40;21.40;99.90
47482;DHT22;33219;47.410;9.730;2023-09-18T08:09:11;21.30;99.90
47482;DHT22;33219;47.410;9.730;2023-09-18T08:14:46;21.30;99.90
47482;DHT22;33219;47.410;9.730;2023-09-18T08:26:13;21.00;99.90
47482;DHT22;33219;47.410;9.730;2023-09-18T08:28:58;21.00;99.90
47482;DHT22;33219;47.410;9.730;2023-09-18T08:31:37;20.90;99.90
47482;DHT22;33219;47.410;9.730;2023-09-18T08:34:11;20.80;99.90
47482;DHT22;33219;47.410;9.730;2023-09-18T08:36:45;20.80;99.90
47482;DHT22;33219;47.410;9.730;2023-09-18T08:39:26;20.70;99.90
47482;DHT22;33219;47.410;9.730;2023-09-18T08:42:15;20.60;99.90
47482;DHT22;33219;47.410;9.730;2023-09-18T08:44:49;20.50;99.90
47482;DHT22;33219;47.410;9.730;2023-09-18T08:59:47;19.60;99.90
47482;DHT22;33219;47.410;9.730;2023-09-18T09:02:16;19.40;99.90
47482;DHT22;33219;47.410;9.730;2023-09-18T09:04:48;19.20;99.90
47482;DHT22;33219;47.410;9.730;2023-09-18T09:07:22;19.10;99.90
47482;DHT22;33219;47.410;9.730;2023-09-18T09:09:47;19.00;99.90
47482;DHT22;33219;47.410;9.730;2023-09-18T09:12:15;18.90;99.90
47482;DHT22;33219;47.410;9.730;2023-09-18T09:15:01;18.70;99.90
47482;DHT22;33219;47.410;9.730;2023-09-18T09:17:18;18.50;99.90
47482;DHT22;33219;47.410;9.730;2023-09-18T09:19:47;18.40;99.90
47482;DHT22;33219;47.410;9.730;2023-09-18T09:22:20;18.30;99.90
47482;DHT22;33219;47.410;9.730;2023-09-18T09:24:50;18.20;99.90
47482;DHT22;33219;47.410;9.730;2023-09-18T09:27:26;18.10;99.90
47482;DHT22;33219;47.410;9.730;2023-09-18T09:30:00;18.00;99.90
47482;DHT22;33219;47.410;9.730;2023-09-18T09:32:34;17.80;99.90
47482;DHT22;33219;47.410;9.730;2023-09-18T09:55:42;16.90;99.90
47482;DHT22;33219;47.410;9.730;2023-09-18T09:58:15;16.90;99.90
47482;DHT22;33219;47.410;9.730;2023-09-18T10:00:46;16.80;99.90
47482;DHT22;33219;47.410;9.730;2023-09-18T10:03:18;16.80;99.90
47482;DHT22;33219;47.410;9.730;2023-09-18T10:05:54;16.80;99.90
47482;DHT22;33219;47.410;9.730;2023-09-18T10:08:23;16.80;99.90
47482;DHT22;33219;47.410;9.730;2023-09-18T10:10:55;16.80;99.90
47482;DHT22;33219;47.410;9.730;2023-09-18T10:13:32;16.90;99.90
47482;DHT22;33219;47.410;9.730;2023-09-18T10:15:57;16.90;99.90
47482;DHT22;33219;47.410;9.730;2023-09-18T10:18:36;16.90;99.90
47482;DHT22;33219;47.410;9.730;2023-09-18T10:21:09;16.90;99.90
47482;DHT22;33219;47.410;9.730;2023-09-18T10:26:25;16.80;99.90
47482;DHT22;33219;47.410;9.730;2023-09-18T10:28:56;16.80;99.90
47482;DHT22;33219;47.410;9.730;2023-09-18T10:31:30;16.80;99.90
47482;DHT22;33219;47.410;9.730;2023-09-18T10:34:15;16.80;99.90
47482;DHT22;33219;47.410;9.730;2023-09-18T10:36:55;16.90;99.90
47482;DHT22;33219;47.410;9.730;2023-09-18T10:39:38;16.90;99.90
47482;DHT22;33219;47.410;9.730;2023-09-18T10:42:02;16.80;99.90
47482;DHT22;33219;47.410;9.730;2023-09-18T10:44:34;16.80;99.90
47482;DHT22;33219;47.410;9.730;2023-09-18T10:47:10;16.80;99.90
47482;DHT22;33219;47.410;9.730;2023-09-18T10:49:43;16.80;99.90
47482;DHT22;33219;47.410;9.730;2023-09-18T10:52:12;16.80;99.90
47482;DHT22;33219;47.410;9.730;2023-09-18T10:54:40;16.80;99.90
47482;DHT22;33219;47.410;9.730;2023-09-18T10:57:08;16.90;99.90
47482;DHT22;33219;47.410;9.730;2023-09-18T11:02:27;17.20;99.90
47482;DHT22;33219;47.410;9.730;2023-09-18T11:05:10;17.20;99.90
47482;DHT22;33219;47.410;9.730;2023-09-18T11:10:29;17.20;99.90
47482;DHT22;33219;47.410;9.730;2023-09-18T11:19:12;17.30;99.90
47482;DHT22;33219;47.410;9.730;2023-09-18T11:22:05;17.40;99.90
47482;DHT22;33219;47.410;9.730;2023-09-18T11:24:36;17.50;99.90
47482;DHT22;33219;47.410;9.730;2023-09-18T11:27:07;17.50;99.90
47482;DHT22;33219;47.410;9.730;2023-09-18T11:29:37;17.50;99.90
47482;DHT22;33219;47.410;9.730;2023-09-18T11:32:09;17.50;99.90
47482;DHT22;33219;47.410;9.730;2023-09-18T11:34:38;17.50;99.90
47482;DHT22;33219;47.410;9.730;2023-09-18T11:37:21;17.50;99.90
47482;DHT22;33219;47.410;9.730;2023-09-18T11:39:52;17.70;99.90
47482;DHT22;33219;47.410;9.730;2023-09-18T11:43:07;17.80;99.90
47482;DHT22;33219;47.410;9.730;2023-09-18T11:45:23;17.90;99.90
47482;DHT22;33219;47.410;9.730;2023-09-18T11:51:14;18.20;99.90
47482;DHT22;33219;47.410;9.730;2023-09-18T11:54:18;18.10;99.90
47482;DHT22;33219;47.410;9.730;2023-09-18T11:57:40;18.30;99.90
47482;DHT22;33219;47.410;9.730;2023-09-18T11:59:55;18.40;99.90
47482;DHT22;33219;47.410;9.730;2023-09-18T12:02:40;18.50;99.90
47482;DHT22;33219;47.410;9.730;2023-09-18T12:05:15;18.60;99.90
47482;DHT22;33219;47.410;9.730;2023-09-18T12:07:48;18.60;99.90
47482;DHT22;33219;47.410;9.730;2023-09-18T12:10:24;18.70;99.90
47482;DHT22;33219;47.410;9.730;2023-09-18T12:12:57;18.70;99.90
47482;DHT22;33219;47.410;9.730;2023-09-18T12:15:31;18.70;99.90
47482;DHT22;33219;47.410;9.730;2023-09-18T12:18:11;18.90;99.90
47482;DHT22;33219;47.410;9.730;2023-09-18T12:20:50;18.90;99.90
47482;DHT22;33219;47.410;9.730;2023-09-18T12:23:23;18.80;99.90
47482;DHT22;33219;47.410;9.730;2023-09-18T12:26:21;18.70;99.90
47482;DHT22;33219;47.410;9.730;2023-09-18T12:29:09;18.70;99.90
47482;DHT22;33219;47.410;9.730;2023-09-18T12:31:44;18.60;99.90
47482;DHT22;33219;47.410;9.730;2023-09-18T12:34:20;18.70;99.90
47482;DHT22;33219;47.410;9.730;2023-09-18T12:36:57;18.80;99.90
47482;DHT22;33219;47.410;9.730;2023-09-18T12:39:32;18.90;99.90
47482;DHT22;33219;47.410;9.730;2023-09-18T12:42:10;18.80;99.90
47482;DHT22;33219;47.410;9.730;2023-09-18T12:45:13;18.70;99.90
47482;DHT22;33219;47.410;9.730;2023-09-18T12:47:38;18.50;99.90
47482;DHT22;33219;47.410;9.730;2023-09-18T12:50:15;18.70;99.90
47482;DHT22;33219;47.410;9.730;2023-09-18T12:52:49;18.60;99.90
47482;DHT22;33219;47.410;9.730;2023-09-18T12:55:26;18.60;99.90
47482;DHT22;33219;47.410;9.730;2023-09-18T12:57:56;18.70;99.90
47482;DHT22;33219;47.410;9.730;2023-09-18T13:00:44;18.70;99.90
47482;DHT22;33219;47.410;9.730;2023-09-18T13:03:14;18.70;99.90
47482;DHT22;33219;47.410;9.730;2023-09-18T13:05:47;18.90;99.90
47482;DHT22;33219;47.410;9.730;2023-09-18T13:08:23;19.00;99.90
47482;DHT22;33219;47.410;9.730;2023-09-18T13:11:01;18.90;99.90
47482;DHT22;33219;47.410;9.730;2023-09-18T13:16:49;18.90;99.90
47482;DHT22;33219;47.410;9.730;2023-09-18T13:19:25;19.20;99.90
47482;DHT22;33219;47.410;9.730;2023-09-18T13:22:05;19.20;99.90
47482;DHT22;33219;47.410;9.730;2023-09-18T13:24:33;19.20;99.90
47482;DHT22;33219;47.410;9.730;2023-09-18T13:27:02;19.30;99.90
47482;DHT22;33219;47.410;9.730;2023-09-18T13:29:32;19.30;99.90
47482;DHT22;33219;47.410;9.730;2023-09-18T13:32:00;19.50;99.90
47482;DHT22;33219;47.410;9.730;2023-09-18T13:34:27;19.60;99.90
47482;DHT22;33219;47.410;9.730;2023-09-18T13:36:56;19.60;99.90
47482;DHT22;33219;47.410;9.730;2023-09-18T13:39:24;19.70;99.90
47482;DHT22;33219;47.410;9.730;2023-09-18T13:41:55;19.70;99.90
47482;DHT22;33219;47.410;9.730;2023-09-18T13:44:25;19.80;99.90
47482;DHT22;33219;47.410;9.730;2023-09-18T13:46:54;20.00;99.90
47482;DHT22;33219;47.410;9.730;2023-09-18T13:49:24;20.10;99.90
47482;DHT22;33219;47.410;9.730;2023-09-18T13:51:52;20.20;99.90
47482;DHT22;33219;47.410;9.730;2023-09-18T13:54:23;20.20;99.90
47482;DHT22;33219;47.410;9.730;2023-09-18T13:56:51;20.20;99.90
47482;DHT22;33219;47.410;9.730;2023-09-18T13:59:20;20.20;99.90
47482;DHT22;33219;47.410;9.730;2023-09-18T14:01:48;20.30;99.90
47482;DHT22;33219;47.410;9.730;2023-09-18T14:04:16;20.30;99.90
47482;DHT22;33219;47.410;9.730;2023-09-18T14:06:44;20.10;99.90
47482;DHT22;33219;47.410;9.730;2023-09-18T14:09:25;20.00;99.90
47482;DHT22;33219;47.410;9.730;2023-09-18T14:11:55;20.00;99.90
47482;DHT22;33219;47.410;9.730;2023-09-18T14:14:23;19.90;99.90
47482;DHT22;33219;47.410;9.730;2023-09-18T14:16:51;19.80;99.90
47482;DHT22;33219;47.410;9.730;2023-09-18T14:19:20;19.80;99.90
47482;DHT22;33219;47.410;9.730;2023-09-18T14:21:48;19.80;99.90
47482;DHT22;33219;47.410;9.730;2023-09-18T14:24:16;19.80;99.90
47482;DHT22;33219;47.410;9.730;2023-09-18T14:26:45;19.90;99.90
47482;DHT22;33219;47.410;9.730;2023-09-18T14:29:14;19.80;99.90
47482;DHT22;33219;47.410;9.730;2023-09-18T14:31:41;19.80;99.90
47482;DHT22;33219;47.410;9.730;2023-09-18T14:34:11;19.80;99.90
47482;DHT22;33219;47.410;9.730;2023-09-18T14:36:39;19.90;99.90
47482;DHT22;33219;47.410;9.730;2023-09-18T14:39:11;19.80;99.90
47482;DHT22;33219;47.410;9.730;2023-09-18T14:41:43;19.70;99.90
47482;DHT22;33219;47.410;9.730;2023-09-18T14:44:09;19.70;99.90
47482;DHT22;33219;47.410;9.730;2023-09-18T14:46:38;19.70;99.90
47482;DHT22;33219;47.410;9.730;2023-09-18T14:49:07;19.70;99.90
47482;DHT22;33219;47.410;9.730;2023-09-18T14:51:39;19.80;99.90
47482;DHT22;33219;47.410;9.730;2023-09-18T14:54:08;19.90;99.90
47482;DHT22;33219;47.410;9.730;2023-09-18T14:56:36;19.80;99.90
47482;DHT22;33219;47.410;9.730;2023-09-18T14:59:06;19.80;99.90
47482;DHT22;33219;47.410;9.730;2023-09-18T15:01:35;19.70;99.90
47482;DHT22;33219;47.410;9.730;2023-09-18T15:04:04;19.70;99.90
47482;DHT22;33219;47.410;9.730;2023-09-18T15:06:32;19.70;99.90
47482;DHT22;33219;47.410;9.730;2023-09-18T15:09:00;19.50;99.90
47482;DHT22;33219;47.410;9.730;2023-09-18T15:11:30;19.50;99.90
47482;DHT22;33219;47.410;9.730;2023-09-18T15:13:58;19.40;99.90
47482;DHT22;33219;47.410;9.730;2023-09-18T15:16:26;19.30;99.90
47482;DHT22;33219;47.410;9.730;2023-09-18T15:18:57;19.30;99.90
47482;DHT22;33219;47.410;9.730;2023-09-18T15:21:29;19.20;99.90
47482;DHT22;33219;47.410;9.730;2023-09-18T15:23:58;19.20;99.90
47482;DHT22;33219;47.410;9.730;2023-09-18T15:26:26;19.20;99.90
47482;DHT22;33219;47.410;9.730;2023-09-18T15:28:55;19.10;99.90
47482;DHT22;33219;47.410;9.730;2023-09-18T15:31:26;19.10;99.90
47482;DHT22;33219;47.410;9.730;2023-09-18T15:33:56;19.10;99.90
47482;DHT22;33219;47.410;9.730;2023-09-18T15:36:24;19.10;99.90
47482;DHT22;33219;47.410;9.730;2023-09-18T15:38:57;19.10;99.90
47482;DHT22;33219;47.410;9.730;2023-09-18T15:41:25;19.10;99.90
47482;DHT22;33219;47.410;9.730;2023-09-18T15:43:55;19.10;99.90
47482;DHT22;33219;47.410;9.730;2023-09-18T15:46:23;19.10;99.90
47482;DHT22;33219;47.410;9.730;2023-09-18T15:48:51;19.10;99.90
47482;DHT22;33219;47.410;9.730;2023-09-18T15:51:20;19.00;99.90
47482;DHT22;33219;47.410;9.730;2023-09-18T15:53:49;19.00;99.90
47482;DHT22;33219;47.410;9.730;2023-09-18T15:56:17;18.90;99.90
47482;DHT22;33219;47.410;9.730;2023-09-18T15:58:47;18.80;99.90
47482;DHT22;33219;47.410;9.730;2023-09-18T16:01:15;18.80;99.90
47482;DHT22;33219;47.410;9.730;2023-09-18T16:06:17;18.80;99.90
47482;DHT22;33219;47.410;9.730;2023-09-18T16:08:47;18.70;99.90
47482;DHT22;33219;47.410;9.730;2023-09-18T16:11:17;18.70;99.90
47482;DHT22;33219;47.410;9.730;2023-09-18T16:13:47;18.70;99.90
47482;DHT22;33219;47.410;9.730;2023-09-18T16:16:16;18.70;99.90
47482;DHT22;33219;47.410;9.730;2023-09-18T16:18:45;18.60;99.90
47482;DHT22;33219;47.410;9.730;2023-09-18T16:21:14;18.60;99.90
47482;DHT22;33219;47.410;9.730;2023-09-18T16:23:43;18.50;99.90
47482;DHT22;33219;47.410;9.730;2023-09-18T16:26:11;18.40;99.90
47482;DHT22;33219;47.410;9.730;2023-09-18T16:28:39;18.40;99.90
47482;DHT22;33219;47.410;9.730;2023-09-18T16:31:08;18.40;99.90
47482;DHT22;33219;47.410;9.730;2023-09-18T16:33:36;18.40;99.90
47482;DHT22;33219;47.410;9.730;2023-09-18T16:36:06;18.30;99.90
47482;DHT22;33219;47.410;9.730;2023-09-18T16:38:35;18.30;99.90
47482;DHT22;33219;47.410;9.730;2023-09-18T16:41:05;18.20;99.90
47482;DHT22;33219;47.410;9.730;2023-09-18T16:43:34;18.20;99.90
47482;DHT22;33219;47.410;9.730;2023-09-18T16:46:04;18.10;99.90
47482;DHT22;33219;47.410;9.730;2023-09-18T16:48:34;18.10;99.90
47482;DHT22;33219;47.410;9.730;2023-09-18T16:51:04;18.10;99.90
47482;DHT22;33219;47.410;9.730;2023-09-18T16:53:32;18.10;99.90
47482;DHT22;33219;47.410;9.730;2023-09-18T16:56:01;18.00;99.90
47482;DHT22;33219;47.410;9.730;2023-09-18T16:58:29;17.90;99.90
47482;DHT22;33219;47.410;9.730;2023-09-18T17:00:58;17.70;99.90
47482;DHT22;33219;47.410;9.730;2023-09-18T17:03:26;17.70;99.90
47482;DHT22;33219;47.410;9.730;2023-09-18T17:05:55;17.60;99.90
47482;DHT22;33219;47.410;9.730;2023-09-18T17:08:24;17.60;99.90
47482;DHT22;33219;47.410;9.730;2023-09-18T17:10:53;17.50;99.90
47482;DHT22;33219;47.410;9.730;2023-09-18T17:13:22;17.50;99.90
47482;DHT22;33219;47.410;9.730;2023-09-18T17:15:53;17.50;99.90
47482;DHT22;33219;47.410;9.730;2023-09-18T17:18:25;17.50;99.90
47482;DHT22;33219;47.410;9.730;2023-09-18T17:20:56;17.40;99.90
47482;DHT22;33219;47.410;9.730;2023-09-18T17:23:24;17.30;99.90
47482;DHT22;33219;47.410;9.730;2023-09-18T17:25:54;17.30;99.90
47482;DHT22;33219;47.410;9.730;2023-09-18T17:28:24;17.20;99.90
47482;DHT22;33219;47.410;9.730;2023-09-18T17:30:54;17.20;99.90
47482;DHT22;33219;47.410;9.730;2023-09-18T17:33:24;17.20;99.90
47482;DHT22;33219;47.410;9.730;2023-09-18T17:35:54;17.10;99.90
47482;DHT22;33219;47.410;9.730;2023-09-18T17:38:23;17.10;99.90
47482;DHT22;33219;47.410;9.730;2023-09-18T17:40:51;17.10;99.90
47482;DHT22;33219;47.410;9.730;2023-09-18T17:43:20;17.00;99.90
47482;DHT22;33219;47.410;9.730;2023-09-18T17:45:50;17.00;99.90
47482;DHT22;33219;47.410;9.730;2023-09-18T17:48:20;17.10;99.90
47482;DHT22;33219;47.410;9.730;2023-09-18T17:50:51;17.10;99.90
47482;DHT22;33219;47.410;9.730;2023-09-18T17:53:20;17.10;99.90
47482;DHT22;33219;47.410;9.730;2023-09-18T17:55:49;17.10;99.90
47482;DHT22;33219;47.410;9.730;2023-09-18T17:58:18;17.10;99.90